createdAt,value
2022-10-30T00:00:47.787Z,18.2
2022-10-30T00:01:52.287Z,20
2022-10-30T00:02:56.939Z,18.3
2022-10-30T00:04:01.161Z,19.6
2022-10-30T00:05:05.600Z,21.8
2022-10-30T00:06:12.857Z,22.6
2022-10-30T00:07:17.348Z,19.4
2022-10-30T00:08:21.876Z,20.4
2022-10-30T00:09:26.191Z,21.3
2022-10-30T00:10:30.551Z,21.8
2022-10-30T00:11:35.846Z,21.1
2022-10-30T00:12:40.248Z,20.7
2022-10-30T00:13:44.892Z,21.2
2022-10-30T00:14:49.504Z,20.9
2022-10-30T00:15:53.999Z,23.2
2022-10-30T00:16:58.576Z,19.2
2022-10-30T00:18:03.403Z,22
2022-10-30T00:19:07.768Z,23.3
2022-10-30T00:20:12.364Z,25.1
2022-10-30T00:21:16.938Z,20.3
2022-10-30T00:22:21.028Z,21.5
2022-10-30T00:23:25.592Z,18.6
2022-10-30T00:24:29.649Z,20.8
2022-10-30T00:25:35.745Z,23
2022-10-30T00:26:39.824Z,22.8
2022-10-30T00:27:43.937Z,19.7
2022-10-30T00:28:48.517Z,23.2
2022-10-30T00:29:52.583Z,23.4
2022-10-30T00:30:58.764Z,25.2
2022-10-30T00:32:03.328Z,21
2022-10-30T00:33:07.443Z,21
2022-10-30T00:34:11.616Z,20
2022-10-30T00:35:16.332Z,20.4
2022-10-30T00:36:22.788Z,20.6
2022-10-30T00:37:28.140Z,20.7
2022-10-30T00:38:32.378Z,21.2
2022-10-30T00:39:36.553Z,19.7
2022-10-30T00:40:41.073Z,20.1
2022-10-30T00:41:45.835Z,22.6
2022-10-30T00:42:50.988Z,22.8
2022-10-30T00:43:55.379Z,22.2
2022-10-30T00:44:59.893Z,21.9
2022-10-30T00:46:04.416Z,20
2022-10-30T00:47:16.932Z,23.3
2022-10-30T00:48:21.437Z,20.8
2022-10-30T00:49:26.384Z,22
2022-10-30T00:50:36.361Z,22.1
2022-10-30T00:51:40.749Z,20.8
2022-10-30T00:52:50.799Z,20.6
2022-10-30T00:53:54.888Z,24.6
2022-10-30T00:54:59.595Z,21.7
2022-10-30T00:56:06.871Z,22.9
2022-10-30T00:57:12.768Z,22.3
2022-10-30T00:58:17.021Z,21.9
2022-10-30T00:59:21.508Z,22.7
2022-10-30T01:00:29.659Z,24.5
2022-10-30T01:01:34.369Z,23.3
2022-10-30T01:02:40.862Z,24.2
2022-10-30T01:03:44.881Z,26.1
2022-10-30T01:04:48.953Z,20.6
2022-10-30T01:05:53.104Z,22.3
2022-10-30T01:06:57.661Z,26.7
2022-10-30T01:08:02.050Z,24.6
2022-10-30T01:09:06.439Z,23.6
2022-10-30T01:10:10.630Z,23.8
2022-10-30T01:11:15.102Z,23.5
2022-10-30T01:12:20.076Z,20.3
2022-10-30T01:13:24.742Z,21.4
2022-10-30T01:14:29.331Z,20.1
2022-10-30T01:15:34.537Z,20.2
2022-10-30T01:16:38.963Z,21.9
2022-10-30T01:17:54.982Z,19
2022-10-30T01:19:09.556Z,19.3
2022-10-30T01:20:21.728Z,20.3
2022-10-30T01:21:34.465Z,20.3
2022-10-30T01:22:47.284Z,19.4
2022-10-30T01:23:56.832Z,21.3
2022-10-30T01:25:12.206Z,20.4
2022-10-30T01:26:26.900Z,21.6
2022-10-30T01:27:36.593Z,23.4
2022-10-30T01:28:51.361Z,19.5
2022-10-30T01:30:03.517Z,20.6
2022-10-30T01:31:15.912Z,19.7
2022-10-30T01:32:26.560Z,20.8
2022-10-30T01:33:41.339Z,19.8
2022-10-30T01:34:53.489Z,19.6
2022-10-30T01:36:03.123Z,23.4
2022-10-30T01:37:10.428Z,19.9
2022-10-30T01:38:17.544Z,21
2022-10-30T01:39:22.064Z,20.1
2022-10-30T01:40:29.297Z,20.6
2022-10-30T01:41:33.843Z,23.8
2022-10-30T01:42:39.764Z,24.8
2022-10-30T01:43:44.500Z,21.2
2022-10-30T01:44:48.851Z,21.6
2022-10-30T01:45:53.379Z,23.1
2022-10-30T01:47:05.916Z,22.5
2022-10-30T01:48:13.904Z,21.3
2022-10-30T01:49:26.365Z,20.7
2022-10-30T01:50:38.596Z,21.6
2022-10-30T01:51:53.405Z,21.5
2022-10-30T01:53:02.967Z,20.7
2022-10-30T01:54:12.217Z,18.6
2022-10-30T01:55:24.839Z,24.3
2022-10-30T01:56:37.099Z,21.1
2022-10-30T01:57:44.264Z,20.8
2022-10-30T01:58:51.786Z,21.5
2022-10-30T02:00:00.972Z,18.7
2022-10-30T02:01:08.368Z,23.2
2022-10-30T02:02:12.854Z,21.6
2022-10-30T02:03:17.768Z,22.8
2022-10-30T02:04:22.190Z,23.6
2022-10-30T02:05:26.573Z,20.6
2022-10-30T02:06:33.651Z,19.3
2022-10-30T02:07:37.964Z,20.7
2022-10-30T02:08:44.092Z,22.2
2022-10-30T02:09:48.464Z,20.7
2022-10-30T02:10:52.981Z,20.2
2022-10-30T02:11:57.155Z,19.1
2022-10-30T02:13:01.999Z,21.1
2022-10-30T02:14:06.317Z,21.1
2022-10-30T02:15:10.403Z,20.7
2022-10-30T02:16:15.030Z,22.6
2022-10-30T02:17:19.734Z,22.6
2022-10-30T02:18:24.132Z,18.2
2022-10-30T02:19:28.797Z,22.4
2022-10-30T02:20:33.284Z,22.3
2022-10-30T02:21:37.424Z,23.5
2022-10-30T02:22:42.088Z,23.5
2022-10-30T02:23:46.530Z,22.4
2022-10-30T02:24:53.803Z,18.6
2022-10-30T02:25:58.479Z,19.7
2022-10-30T02:27:03.120Z,20
2022-10-30T02:28:07.427Z,21.1
2022-10-30T02:29:11.619Z,20.5
2022-10-30T02:30:17.796Z,20.4
2022-10-30T02:31:22.271Z,21.3
2022-10-30T02:32:26.611Z,22.6
2022-10-30T02:33:30.902Z,21
2022-10-30T02:34:35.080Z,21.5
2022-10-30T02:35:40.928Z,19.9
2022-10-30T02:36:45.157Z,22.3
2022-10-30T02:37:49.781Z,24.9
2022-10-30T02:38:54.333Z,23
2022-10-30T02:39:58.836Z,25
2022-10-30T02:41:04.135Z,21.9
2022-10-30T02:42:09.772Z,21.8
2022-10-30T02:43:14.546Z,22.8
2022-10-30T02:44:18.916Z,23.3
2022-10-30T02:45:23.437Z,20.7
2022-10-30T02:46:27.952Z,19.5
2022-10-30T02:47:33.799Z,21.2
2022-10-30T02:48:38.192Z,20.9
2022-10-30T02:49:42.651Z,20.1
2022-10-30T02:50:46.751Z,22.3
2022-10-30T02:51:51.359Z,22.6
2022-10-30T02:52:58.039Z,20.3
2022-10-30T02:54:02.107Z,22.3
2022-10-30T02:55:06.609Z,23.6
2022-10-30T02:56:10.740Z,23.8
2022-10-30T02:57:14.791Z,24.4
2022-10-30T02:58:19.799Z,24.8
2022-10-30T02:59:24.000Z,22.3
2022-10-30T03:00:28.952Z,20.7
2022-10-30T03:01:33.486Z,21.5
2022-10-30T03:02:37.887Z,20.7
2022-10-30T03:03:42.799Z,23.7
2022-10-30T03:04:47.355Z,21.9
2022-10-30T03:05:52.783Z,21.5
2022-10-30T03:06:57.124Z,20.1
2022-10-30T03:08:02.199Z,25
2022-10-30T03:09:06.202Z,27.2
2022-10-30T03:10:10.804Z,21.8
2022-10-30T03:11:17.786Z,23.2
2022-10-30T03:12:22.063Z,22
2022-10-30T03:13:26.596Z,19.8
2022-10-30T03:14:30.756Z,23
2022-10-30T03:15:35.375Z,20.6
2022-10-30T03:16:39.971Z,19.4
2022-10-30T03:17:44.542Z,23.3
2022-10-30T03:18:48.942Z,21.2
2022-10-30T03:19:53.236Z,25.6
2022-10-30T03:20:58.540Z,22.6
2022-10-30T03:22:02.747Z,20.4
2022-10-30T03:23:06.876Z,20.9
2022-10-30T03:24:11.158Z,19.2
2022-10-30T03:25:15.619Z,20.7
2022-10-30T03:26:20.063Z,26.3
2022-10-30T03:27:24.787Z,23.5
2022-10-30T03:28:29.384Z,22.3
2022-10-30T03:29:34.203Z,20.3
2022-10-30T03:30:38.624Z,22
2022-10-30T03:31:43.124Z,22.3
2022-10-30T03:32:47.624Z,21.8
2022-10-30T03:33:52.166Z,22.1
2022-10-30T03:34:57.772Z,23.6
2022-10-30T03:36:01.811Z,19.9
2022-10-30T03:37:06.450Z,24
2022-10-30T03:38:11.055Z,21.6
2022-10-30T03:39:15.200Z,20.2
2022-10-30T03:40:21.854Z,21.7
2022-10-30T03:41:26.351Z,20.9
2022-10-30T03:42:31.003Z,24.1
2022-10-30T03:43:35.488Z,22.2
2022-10-30T03:44:39.687Z,20.6
2022-10-30T03:45:44.228Z,21.3
2022-10-30T03:46:48.691Z,19.7
2022-10-30T03:47:52.861Z,24.2
2022-10-30T03:48:57.388Z,22.3
2022-10-30T03:50:01.817Z,21.5
2022-10-30T03:51:06.563Z,23.6
2022-10-30T03:52:11.318Z,20.5
2022-10-30T03:53:15.812Z,22.6
2022-10-30T03:54:20.408Z,22.3
2022-10-30T03:55:25.104Z,23.5
2022-10-30T03:56:29.761Z,22.7
2022-10-30T03:57:34.132Z,22.2
2022-10-30T03:58:38.731Z,23.5
2022-10-30T03:59:43.255Z,24.8
2022-10-30T04:00:49.784Z,20.8
2022-10-30T04:02:56.347Z,20.8
2022-10-30T04:05:02.652Z,20.8
2022-10-30T04:06:09.790Z,23.8
2022-10-30T04:07:13.904Z,24.5
2022-10-30T04:08:17.969Z,20.8
2022-10-30T04:09:22.700Z,21.1
2022-10-30T04:10:27.232Z,24.6
2022-10-30T04:11:31.853Z,22.7
2022-10-30T04:12:36.247Z,26.9
2022-10-30T04:13:40.445Z,20.5
2022-10-30T04:14:44.955Z,20.4
2022-10-30T04:15:53.853Z,20.1
2022-10-30T04:16:53.607Z,21
2022-10-30T04:17:57.769Z,20.2
2022-10-30T04:19:01.955Z,23.7
2022-10-30T04:20:06.311Z,22
2022-10-30T04:21:10.934Z,22.2
2022-10-30T04:22:17.784Z,22.1
2022-10-30T04:23:22.192Z,23.1
2022-10-30T04:24:26.802Z,23.9
2022-10-30T04:25:31.271Z,22.9
2022-10-30T04:26:35.328Z,20.5
2022-10-30T04:27:40.223Z,21.1
2022-10-30T04:28:44.719Z,22.2
2022-10-30T04:29:49.118Z,24.1
2022-10-30T04:30:53.671Z,24
2022-10-30T04:31:57.805Z,22.2
2022-10-30T04:33:03.791Z,21.1
2022-10-30T04:34:07.951Z,24.7
2022-10-30T04:35:12.087Z,24.7
2022-10-30T04:36:16.671Z,21.9
2022-10-30T04:37:21.265Z,21.5
2022-10-30T04:38:26.787Z,25.8
2022-10-30T04:39:30.975Z,21.7
2022-10-30T04:40:35.451Z,23.6
2022-10-30T04:41:40.104Z,22.6
2022-10-30T04:42:44.676Z,23.9
2022-10-30T04:43:51.852Z,21.3
2022-10-30T04:44:56.411Z,23.6
2022-10-30T04:46:00.939Z,21.1
2022-10-30T04:47:05.571Z,21.7
2022-10-30T04:48:10.112Z,24.8
2022-10-30T04:49:14.934Z,23.2
2022-10-30T04:50:19.297Z,25.3
2022-10-30T04:51:23.426Z,24.7
2022-10-30T04:52:28.012Z,23.7
2022-10-30T04:53:32.755Z,24.2
2022-10-30T04:54:37.148Z,24
2022-10-30T04:55:41.659Z,21.7
2022-10-30T04:56:45.796Z,23
2022-10-30T04:57:50.292Z,26
2022-10-30T04:58:57.383Z,21
2022-10-30T05:00:02.860Z,21.8
2022-10-30T05:01:07.635Z,22.1
2022-10-30T05:02:11.932Z,23
2022-10-30T05:03:15.858Z,25
2022-10-30T05:04:20.416Z,25.3
2022-10-30T05:05:24.805Z,26.2
2022-10-30T05:06:29.063Z,24.7
2022-10-30T05:07:33.351Z,25.8
2022-10-30T05:08:37.890Z,24.7
2022-10-30T05:09:42.320Z,23.5
2022-10-30T05:10:48.860Z,23.9
2022-10-30T05:11:54.911Z,29.1
2022-10-30T05:12:57.627Z,21.5
2022-10-30T05:14:02.186Z,24.7
2022-10-30T05:15:06.943Z,22.7
2022-10-30T05:16:13.837Z,23.2
2022-10-30T05:17:18.109Z,22.1
2022-10-30T05:18:22.796Z,25
2022-10-30T05:19:27.108Z,23.5
2022-10-30T05:20:31.148Z,23.1
2022-10-30T05:21:35.992Z,25.8
2022-10-30T05:22:40.506Z,26.1
2022-10-30T05:23:45.020Z,22.4
2022-10-30T05:24:49.615Z,23.2
2022-10-30T05:25:54.048Z,26.1
2022-10-30T05:26:58.223Z,26.5
2022-10-30T05:28:02.828Z,22.1
2022-10-30T05:29:07.311Z,21.3
2022-10-30T05:30:11.914Z,24.7
2022-10-30T05:31:16.927Z,23.4
2022-10-30T05:32:24.787Z,24.2
2022-10-30T05:33:29.315Z,21.7
2022-10-30T05:34:33.784Z,22.7
2022-10-30T05:35:38.512Z,23.8
2022-10-30T05:36:43.106Z,21.6
2022-10-30T05:37:48.796Z,20
2022-10-30T05:38:53.195Z,19.2
2022-10-30T05:39:57.909Z,22
2022-10-30T05:41:02.235Z,23.8
2022-10-30T05:42:09.852Z,19.9
2022-10-30T05:43:11.850Z,22.2
2022-10-30T05:44:24.358Z,24.2
2022-10-30T05:45:20.795Z,20.8
2022-10-30T05:46:25.119Z,20.8
2022-10-30T05:47:29.288Z,21.4
2022-10-30T05:48:36.838Z,23
2022-10-30T05:49:41.067Z,22.8
2022-10-30T05:50:45.517Z,25.2
2022-10-30T05:51:50.112Z,19.1
2022-10-30T05:52:54.527Z,20.1
2022-10-30T05:54:00.021Z,21.5
2022-10-30T05:55:04.354Z,20.7
2022-10-30T05:56:09.143Z,20.6
2022-10-30T05:57:13.497Z,18.5
2022-10-30T05:58:18.071Z,19.7
2022-10-30T05:59:23.827Z,19.5
2022-10-30T06:00:28.787Z,19.2
2022-10-30T06:01:33.666Z,20.3
2022-10-30T06:02:37.987Z,20.9
2022-10-30T06:03:43.678Z,24
2022-10-30T06:04:48.971Z,21.6
2022-10-30T06:05:53.590Z,22.2
2022-10-30T06:06:57.684Z,23.5
2022-10-30T06:08:01.769Z,18.6
2022-10-30T06:09:06.322Z,33
2022-10-30T06:10:10.995Z,20.7
2022-10-30T06:11:15.629Z,18.4
2022-10-30T06:12:20.243Z,18.3
2022-10-30T06:13:25.126Z,18.3
2022-10-30T06:14:29.343Z,22.2
2022-10-30T06:15:34.852Z,22.6
2022-10-30T06:16:39.003Z,20.1
2022-10-30T06:17:43.659Z,21
2022-10-30T06:18:50.943Z,22.7
2022-10-30T06:19:55.191Z,17.9
2022-10-30T06:20:59.271Z,22.3
2022-10-30T06:22:03.928Z,23.3
2022-10-30T06:23:08.798Z,23
2022-10-30T06:24:13.062Z,22.6
2022-10-30T06:25:17.115Z,22
2022-10-30T06:26:21.166Z,18.3
2022-10-30T06:27:25.384Z,22.3
2022-10-30T06:28:30.062Z,17.8
2022-10-30T06:29:34.398Z,19.4
2022-10-30T06:30:38.494Z,19.1
2022-10-30T06:31:43.063Z,24.2
2022-10-30T06:32:47.598Z,21.5
2022-10-30T06:33:57.262Z,20.9
2022-10-30T06:35:01.979Z,19.9
2022-10-30T06:36:07.011Z,21.3
2022-10-30T06:37:11.745Z,18.6
2022-10-30T06:38:16.291Z,18.5
2022-10-30T06:39:20.890Z,22.6
2022-10-30T06:40:25.343Z,17.9
2022-10-30T06:41:30.703Z,20.1
2022-10-30T06:42:35.598Z,18.1
2022-10-30T06:43:48.042Z,20.5
2022-10-30T06:44:52.314Z,17.9
2022-10-30T06:45:56.913Z,18.4
2022-10-30T06:47:01.615Z,19.6
2022-10-30T06:48:06.087Z,17.3
2022-10-30T06:49:10.783Z,15.7
2022-10-30T06:50:15.713Z,18.3
2022-10-30T06:51:19.900Z,18.6
2022-10-30T06:52:24.403Z,20.5
2022-10-30T06:53:28.590Z,17.6
2022-10-30T06:54:33.155Z,17.3
2022-10-30T06:55:37.702Z,17.6
2022-10-30T06:56:42.318Z,16.8
2022-10-30T06:57:46.708Z,18.5
2022-10-30T06:58:53.802Z,20
2022-10-30T06:59:58.074Z,18.4
2022-10-30T07:01:03.042Z,17.7
2022-10-30T07:02:12.450Z,19.4
2022-10-30T07:03:17.062Z,15.3
2022-10-30T07:04:21.818Z,15.5
2022-10-30T07:05:26.360Z,18.4
2022-10-30T07:06:30.522Z,18.4
2022-10-30T07:07:36.830Z,16.2
2022-10-30T07:08:43.305Z,18.6
2022-10-30T07:09:47.979Z,17.5
2022-10-30T07:10:52.626Z,19.8
2022-10-30T07:11:57.654Z,17.7
2022-10-30T07:13:02.077Z,18.8
2022-10-30T07:14:06.184Z,21.5
2022-10-30T07:15:10.835Z,18.4
2022-10-30T07:16:15.587Z,19.5
2022-10-30T07:17:20.059Z,21.1
2022-10-30T07:18:24.910Z,23.9
2022-10-30T07:19:29.296Z,22.4
2022-10-30T07:20:35.832Z,21.5
2022-10-30T07:21:40.278Z,22
2022-10-30T07:22:44.979Z,22.1
2022-10-30T07:23:49.526Z,18.8
2022-10-30T07:24:53.979Z,19.8
2022-10-30T07:26:03.664Z,21.5
2022-10-30T07:27:04.255Z,19.8
2022-10-30T07:28:08.754Z,20.3
2022-10-30T07:29:12.799Z,19.6
2022-10-30T07:30:17.108Z,20.9
2022-10-30T07:31:28.885Z,20.5
2022-10-30T07:32:27.107Z,21.5
2022-10-30T07:33:31.850Z,22.3
2022-10-30T07:34:36.394Z,20
2022-10-30T07:35:40.930Z,20.1
2022-10-30T07:36:46.796Z,21.7
2022-10-30T07:37:51.100Z,18.7
2022-10-30T07:38:55.642Z,16.5
2022-10-30T07:40:00.182Z,18.3
2022-10-30T07:41:04.946Z,17.2
2022-10-30T07:42:11.820Z,18.3
2022-10-30T07:43:16.154Z,18.6
2022-10-30T07:44:20.747Z,20.5
2022-10-30T07:45:25.367Z,18.9
2022-10-30T07:46:30.158Z,16.9
2022-10-30T07:47:34.434Z,18.5
2022-10-30T07:48:41.514Z,20.9
2022-10-30T07:49:46.070Z,18.2
2022-10-30T07:50:50.210Z,20.5
2022-10-30T07:51:54.735Z,15.4
2022-10-30T07:52:59.357Z,20.8
2022-10-30T07:54:03.917Z,16.7
2022-10-30T07:55:08.034Z,20.2
2022-10-30T07:56:12.646Z,17.5
2022-10-30T07:57:17.358Z,17.7
2022-10-30T07:58:21.853Z,19.2
2022-10-30T07:59:26.449Z,19.7
2022-10-30T08:00:30.966Z,18.7
2022-10-30T08:01:35.526Z,19.5
2022-10-30T08:02:39.743Z,19.3
2022-10-30T08:03:43.679Z,18
2022-10-30T08:04:47.766Z,21.1
2022-10-30T08:05:51.838Z,20.7
2022-10-30T08:06:56.042Z,21
2022-10-30T08:08:00.855Z,19.8
2022-10-30T08:09:05.840Z,18
2022-10-30T08:10:10.209Z,17.8
2022-10-30T08:11:14.380Z,18.9
2022-10-30T08:12:18.954Z,19.6
2022-10-30T08:13:23.510Z,18.3
2022-10-30T08:14:28.145Z,19
2022-10-30T08:15:32.790Z,16.8
2022-10-30T08:16:37.778Z,18.8
2022-10-30T08:17:42.337Z,20.2
2022-10-30T08:18:46.979Z,21.2
2022-10-30T08:19:51.524Z,19.4
2022-10-30T08:20:56.219Z,17.5
2022-10-30T08:22:00.658Z,19
2022-10-30T08:23:04.935Z,20.8
2022-10-30T08:24:09.293Z,19
2022-10-30T08:25:13.558Z,20.8
2022-10-30T08:26:18.063Z,20.9
2022-10-30T08:27:22.842Z,18.5
2022-10-30T08:28:29.799Z,18.6
2022-10-30T08:29:31.746Z,22
2022-10-30T08:30:36.461Z,22.9
2022-10-30T08:31:41.006Z,21.8
2022-10-30T08:32:45.540Z,20.9
2022-10-30T08:33:50.110Z,19.3
2022-10-30T08:34:54.683Z,18.5
2022-10-30T08:35:59.369Z,16.8
2022-10-30T08:37:03.986Z,19.9
2022-10-30T08:38:08.534Z,18.1
2022-10-30T08:39:13.233Z,16.7
2022-10-30T08:40:17.649Z,19.7
2022-10-30T08:41:22.296Z,17.8
2022-10-30T08:42:26.851Z,18.3
2022-10-30T08:43:31.321Z,19.1
2022-10-30T08:44:35.474Z,17.5
2022-10-30T08:45:40.114Z,16.3
2022-10-30T08:46:44.605Z,19.4
2022-10-30T08:47:49.174Z,16.5
2022-10-30T08:48:56.249Z,17.1
2022-10-30T08:50:00.359Z,22
2022-10-30T08:51:05.023Z,18.8
2022-10-30T08:52:09.521Z,19.4
2022-10-30T08:53:13.750Z,18.7
2022-10-30T08:54:18.261Z,16.9
2022-10-30T08:55:22.926Z,16.6
2022-10-30T08:56:27.437Z,18.5
2022-10-30T08:57:32.049Z,18.2
2022-10-30T08:58:36.498Z,20.1
2022-10-30T08:59:41.098Z,18.6
2022-10-30T09:00:45.178Z,17.8
2022-10-30T09:01:49.888Z,18.9
2022-10-30T09:02:54.321Z,19.1
2022-10-30T09:03:58.410Z,21.2
2022-10-30T09:05:03.042Z,21
2022-10-30T09:06:07.799Z,19
2022-10-30T09:07:12.982Z,19.4
2022-10-30T09:08:16.782Z,17.7
2022-10-30T09:09:21.389Z,20.2
2022-10-30T09:10:26.001Z,19.1
2022-10-30T09:11:30.509Z,17.7
2022-10-30T09:12:34.698Z,17.6
2022-10-30T09:13:39.199Z,15.5
2022-10-30T09:14:43.698Z,15
2022-10-30T09:15:48.334Z,17.4
2022-10-30T09:16:52.864Z,18.2
2022-10-30T09:17:57.204Z,23.9
2022-10-30T09:19:01.594Z,17.8
2022-10-30T09:20:06.131Z,16.3
2022-10-30T09:21:10.747Z,15.6
2022-10-30T09:22:15.390Z,15.6
2022-10-30T09:23:19.877Z,17
2022-10-30T09:24:24.009Z,18.4
2022-10-30T09:25:28.581Z,16.6
2022-10-30T09:26:33.101Z,18.6
2022-10-30T09:27:37.710Z,19.8
2022-10-30T09:28:41.773Z,17.7
2022-10-30T09:29:46.377Z,15.5
2022-10-30T09:30:51.116Z,16.1
2022-10-30T09:31:55.449Z,18.4
2022-10-30T09:32:59.893Z,19
2022-10-30T09:34:03.874Z,16.8
2022-10-30T09:35:08.459Z,14.2
2022-10-30T09:36:14.637Z,16.6
2022-10-30T09:37:16.985Z,14.5
2022-10-30T09:38:21.623Z,14.8
2022-10-30T09:39:26.110Z,17.1
2022-10-30T09:40:30.204Z,14
2022-10-30T09:41:48.503Z,15.7
2022-10-30T09:42:59.718Z,18.7
2022-10-30T09:44:09.373Z,16.3
2022-10-30T09:45:28.446Z,16.1
2022-10-30T09:46:26.326Z,16.4
2022-10-30T09:47:38.473Z,16.4
2022-10-30T09:48:53.232Z,16.7
2022-10-30T09:50:02.893Z,15.1
2022-10-30T09:51:07.417Z,18.3
2022-10-30T09:52:22.260Z,18.4
2022-10-30T09:53:34.474Z,17.1
2022-10-30T09:54:49.153Z,16.7
2022-10-30T09:56:03.805Z,21.1
2022-10-30T09:57:16.352Z,17.8
2022-10-30T09:58:25.729Z,16.8
2022-10-30T09:59:40.583Z,24.8
2022-10-30T10:00:50.375Z,21
2022-10-30T10:01:54.939Z,16.1
2022-10-30T10:03:07.389Z,14.6
2022-10-30T10:04:14.766Z,16.6
2022-10-30T10:05:19.303Z,15.3
2022-10-30T10:06:28.886Z,14.3
2022-10-30T10:07:33.589Z,14.6
2022-10-30T10:08:38.066Z,14.2
2022-10-30T10:09:42.630Z,14.4
2022-10-30T10:10:47.094Z,14.2
2022-10-30T10:11:54.211Z,16.3
2022-10-30T10:13:01.771Z,14.2
2022-10-30T10:14:05.923Z,14.6
2022-10-30T10:15:12.526Z,12.9
2022-10-30T10:16:19.848Z,15.3
2022-10-30T10:17:24.292Z,19.2
2022-10-30T10:18:29.013Z,15.3
2022-10-30T10:19:33.490Z,15.6
2022-10-30T10:20:43.147Z,15.8
2022-10-30T10:21:47.893Z,16.9
2022-10-30T10:22:54.777Z,15.2
2022-10-30T10:23:58.906Z,16.6
2022-10-30T10:25:03.413Z,16.7
2022-10-30T10:26:08.116Z,16.6
2022-10-30T10:27:12.637Z,16
2022-10-30T10:28:16.758Z,17.9
2022-10-30T10:29:29.008Z,17.1
2022-10-30T10:30:38.743Z,16.1
2022-10-30T10:31:43.294Z,19.9
2022-10-30T10:32:52.819Z,18.3
2022-10-30T10:34:07.564Z,17.3
2022-10-30T10:35:14.753Z,18.4
2022-10-30T10:36:24.485Z,16.9
2022-10-30T10:37:34.085Z,19.2
2022-10-30T10:38:46.794Z,17.7
2022-10-30T10:40:01.629Z,18
2022-10-30T10:41:11.097Z,15.8
2022-10-30T10:42:23.478Z,18.9
2022-10-30T10:43:30.553Z,18
2022-10-30T10:44:45.394Z,18
2022-10-30T10:45:49.912Z,17.7
2022-10-30T10:47:02.977Z,17.5
2022-10-30T10:48:09.217Z,22.2
2022-10-30T10:49:19.474Z,21.7
2022-10-30T10:50:29.089Z,17
2022-10-30T10:51:38.811Z,22
2022-10-30T10:52:43.379Z,21.9
2022-10-30T10:53:53.057Z,25.5
2022-10-30T10:55:00.149Z,18.4
2022-10-30T10:56:07.249Z,14.8
2022-10-30T10:57:11.798Z,17.2
2022-10-30T10:58:26.624Z,15.7
2022-10-30T10:59:31.258Z,16.2
2022-10-30T11:00:41.260Z,16.7
2022-10-30T11:01:45.581Z,16.7
2022-10-30T11:02:52.996Z,15.6
2022-10-30T11:03:57.812Z,14.5
2022-10-30T11:05:12.369Z,16.8
2022-10-30T11:06:25.193Z,17
2022-10-30T11:07:32.453Z,15.8
2022-10-30T11:08:36.845Z,15.7
2022-10-30T11:09:41.481Z,17.3
2022-10-30T11:10:45.996Z,17.9
2022-10-30T11:11:50.138Z,15.1
2022-10-30T11:12:54.761Z,14.9
2022-10-30T11:13:59.201Z,13.2
2022-10-30T11:15:03.272Z,14.9
2022-10-30T11:16:13.096Z,14.6
2022-10-30T11:17:25.257Z,16.5
2022-10-30T11:18:29.895Z,15.9
2022-10-30T11:19:34.360Z,15.8
2022-10-30T11:20:38.990Z,14.4
2022-10-30T11:21:48.756Z,16.9
2022-10-30T11:22:53.457Z,16.1
2022-10-30T11:23:57.868Z,15.6
2022-10-30T11:25:02.334Z,17.1
2022-10-30T11:26:17.173Z,16.1
2022-10-30T11:27:21.434Z,15.1
2022-10-30T11:28:29.195Z,14
2022-10-30T11:29:38.662Z,15
2022-10-30T11:30:42.702Z,16.7
2022-10-30T11:31:46.822Z,14
2022-10-30T11:32:59.226Z,13.3
2022-10-30T11:34:03.736Z,14.1
2022-10-30T11:35:13.283Z,13.8
2022-10-30T11:36:18.057Z,14.3
2022-10-30T11:37:22.698Z,13.6
2022-10-30T11:38:30.118Z,12.2
2022-10-30T11:39:35.016Z,13.9
2022-10-30T11:40:39.393Z,13.1
2022-10-30T11:41:46.415Z,12.7
2022-10-30T11:42:56.426Z,13.8
2022-10-30T11:44:00.678Z,15.1
2022-10-30T11:45:05.288Z,11.3
2022-10-30T11:46:14.882Z,14.8
2022-10-30T11:47:19.498Z,13.9
2022-10-30T11:48:29.086Z,14.1
2022-10-30T11:49:33.395Z,13.7
2022-10-30T11:50:41.096Z,13.8
2022-10-30T11:51:45.487Z,13.8
2022-10-30T11:52:50.189Z,13.3
2022-10-30T11:53:54.622Z,17.1
2022-10-30T11:54:59.197Z,14.6
2022-10-30T11:56:03.832Z,12.7
2022-10-30T11:57:10.974Z,13.4
2022-10-30T11:58:21.167Z,14
2022-10-30T11:59:28.742Z,13.2
2022-10-30T12:00:33.211Z,16.2
2022-10-30T12:01:37.812Z,16.6
2022-10-30T12:02:41.943Z,13.2
2022-10-30T12:03:46.699Z,14.2
2022-10-30T12:04:51.385Z,15.5
2022-10-30T12:06:00.809Z,12.4
2022-10-30T12:07:11.073Z,14.5
2022-10-30T12:08:23.185Z,11.8
2022-10-30T12:09:27.713Z,13.9
2022-10-30T12:10:32.262Z,14.2
2022-10-30T12:11:43.029Z,11.7
2022-10-30T12:12:47.605Z,13.4
2022-10-30T12:13:52.210Z,18.7
2022-10-30T12:14:56.750Z,13.4
2022-10-30T12:16:11.610Z,11.5
2022-10-30T12:17:16.070Z,12
2022-10-30T12:18:20.787Z,14.3
2022-10-30T12:19:27.949Z,12.2
2022-10-30T12:20:32.446Z,12.6
2022-10-30T12:21:37.038Z,17.9
2022-10-30T12:22:41.656Z,17.5
2022-10-30T12:23:46.134Z,14.4
2022-10-30T12:24:55.911Z,12.9
2022-10-30T12:26:00.316Z,11.6
2022-10-30T12:27:10.075Z,11.6
2022-10-30T12:28:14.587Z,12.9
2022-10-30T12:29:36.641Z,13.3
2022-10-30T12:30:41.629Z,10.8
2022-10-30T12:31:53.823Z,11.3
2022-10-30T12:32:58.365Z,12.9
2022-10-30T12:34:07.641Z,12.3
2022-10-30T12:35:22.331Z,12.5
2022-10-30T12:36:37.064Z,15.4
2022-10-30T12:37:41.142Z,11.8
2022-10-30T12:38:45.190Z,12.8
2022-10-30T12:39:52.341Z,13.2
2022-10-30T12:41:02.058Z,13.6
2022-10-30T12:42:09.591Z,12.2
2022-10-30T12:43:13.706Z,11.4
2022-10-30T12:44:18.210Z,12
2022-10-30T12:45:22.606Z,11.6
2022-10-30T12:46:30.159Z,10.8
2022-10-30T12:47:34.600Z,13.3
2022-10-30T12:48:42.163Z,11.5
2022-10-30T12:49:51.879Z,14.5
2022-10-30T12:51:01.589Z,12.8
2022-10-30T12:52:16.251Z,13.4
2022-10-30T12:53:25.890Z,13.4
2022-10-30T12:54:32.977Z,13.9
2022-10-30T12:55:40.226Z,12.3
2022-10-30T12:56:44.971Z,14.1
2022-10-30T12:57:49.402Z,11.5
2022-10-30T12:59:01.574Z,12.4
2022-10-30T13:00:16.403Z,13.7
2022-10-30T13:01:21.001Z,11.9
2022-10-30T13:02:27.900Z,14.2
2022-10-30T13:03:42.819Z,11.7
2022-10-30T13:04:57.620Z,12.4
2022-10-30T13:06:02.065Z,13.1
2022-10-30T13:07:09.199Z,14.6
2022-10-30T13:08:21.934Z,13.3
2022-10-30T13:09:26.470Z,12.5
2022-10-30T13:10:36.156Z,13.8
2022-10-30T13:11:43.283Z,13.2
2022-10-30T13:12:47.461Z,12
2022-10-30T13:13:54.642Z,11.5
2022-10-30T13:14:59.129Z,11.6
2022-10-30T13:16:03.206Z,16
2022-10-30T13:17:07.800Z,12.5
2022-10-30T13:18:12.062Z,12.1
2022-10-30T13:19:20.118Z,11.4
2022-10-30T13:20:28.397Z,12.5
2022-10-30T13:21:33.269Z,11.5
2022-10-30T13:22:43.455Z,29.4
2022-10-30T13:23:48.685Z,29.3
2022-10-30T13:24:59.188Z,20.6
2022-10-30T13:26:12.222Z,32.9
2022-10-30T13:27:20.201Z,17
2022-10-30T13:28:30.309Z,19.3
2022-10-30T13:29:45.233Z,20.2
2022-10-30T13:30:55.846Z,14.9
2022-10-30T13:32:08.681Z,21.8
2022-10-30T13:33:19.270Z,33.6
2022-10-30T13:34:24.755Z,22.2
2022-10-30T13:35:32.785Z,13.4
2022-10-30T13:36:47.611Z,11.4
2022-10-30T13:38:00.609Z,11.9
2022-10-30T13:39:14.900Z,11
2022-10-30T13:40:19.390Z,12.2
2022-10-30T13:41:26.098Z,15
2022-10-30T13:42:33.231Z,12.3
2022-10-30T13:43:43.259Z,11.9
2022-10-30T13:44:55.638Z,11.5
2022-10-30T13:46:10.395Z,12.6
2022-10-30T13:47:17.965Z,12.6
2022-10-30T13:48:30.258Z,13
2022-10-30T13:49:39.863Z,14.2
2022-10-30T13:50:54.730Z,9.8
2022-10-30T13:52:09.340Z,11
2022-10-30T13:53:16.575Z,11.3
2022-10-30T13:54:21.210Z,11.8
2022-10-30T13:55:34.273Z,10.6
2022-10-30T13:56:39.493Z,11
2022-10-30T13:57:44.094Z,10.9
2022-10-30T13:58:56.445Z,10.6
2022-10-30T14:00:08.597Z,10.5
2022-10-30T14:01:18.732Z,10.5
2022-10-30T14:02:28.439Z,8.5
2022-10-30T14:03:43.215Z,9.9
2022-10-30T14:04:57.793Z,11
2022-10-30T14:06:04.969Z,10.9
2022-10-30T14:07:14.811Z,12.5
2022-10-30T14:08:24.433Z,10.4
2022-10-30T14:09:34.054Z,12.1
2022-10-30T14:10:41.157Z,12
2022-10-30T14:11:48.254Z,9.3
2022-10-30T14:12:55.636Z,10.1
2022-10-30T14:14:00.083Z,12.3
2022-10-30T14:15:04.193Z,14.4
2022-10-30T14:16:08.681Z,14.5
2022-10-30T14:17:23.498Z,18.2
2022-10-30T14:18:28.001Z,12.6
2022-10-30T14:19:38.338Z,14.6
2022-10-30T14:20:52.990Z,10.3
2022-10-30T14:21:57.590Z,13
2022-10-30T14:23:02.290Z,10.3
2022-10-30T14:24:12.085Z,11.5
2022-10-30T14:25:26.774Z,12.9
2022-10-30T14:26:31.081Z,10
2022-10-30T14:27:35.320Z,13.5
2022-10-30T14:28:39.900Z,12.6
2022-10-30T14:29:44.485Z,11.8
2022-10-30T14:30:48.946Z,13.8
2022-10-30T14:32:03.938Z,12.9
2022-10-30T14:33:13.474Z,11.3
2022-10-30T14:34:28.145Z,11.4
2022-10-30T14:35:37.841Z,9.6
2022-10-30T14:36:41.953Z,11.4
2022-10-30T14:37:46.658Z,15.2
2022-10-30T14:38:51.199Z,12.6
2022-10-30T14:40:01.034Z,12.2
2022-10-30T14:41:15.676Z,11.5
2022-10-30T14:42:22.797Z,10.2
2022-10-30T14:43:32.891Z,11.2
2022-10-30T14:44:42.685Z,13.9
2022-10-30T14:45:55.553Z,12.1
2022-10-30T14:47:00.864Z,12.8
2022-10-30T14:48:12.009Z,11.7